Terminal Aerodrome Forecast
Issued by NWS Sioux Falls, SD

Home | Current Version | Previous Version | Graphics & Text | Print | Product List | Glossary Off
Versions: 1 2 3 4 5 6 7 8 9 10 11 12 13 14 15 16 17 18 19 20

228
FTUS43 KFSD 181124
TAFFSD
TAF
KFSD 181124Z 1812/1912 19006KT P6SM BKN150
     FM181700 16006KT P6SM BKN080
     FM181900 13008KT P6SM VCTS BKN070CB
     FM182200 08009KT P6SM BKN050
     FM190400 07007KT P6SM BKN060=

USA.gov is the U.S. government's official web portal to all federal, state and local government web resources and services.